Decoded Metar for UGSB (BATUMI in GEORGIA) (IATA:N/A) | Meteo·Mobile Aviation Weather
aviador You're here:

UGSB Decoded Metar

BATUMI in GEORGIA
Report Time2018-09-20 06:30:00
UTC Time2018-09-20 07:05:58
Flight Rules vfr VFR
Wind360° at 05 kt
W.Decomp.*RWY 31: 3.5 kt HW 3.6 kt RCW
Visibility9999 m
Phenomena:N/A
Clouds:Few 033 Hf
Expected CloudBase > 2,400 ft AGL from Temp-Dew spread
CeilingNone
Temp23°C (ISA +8)
Dew Point17°C (69% RH)
QNH1020 hPa
Density Alt1,083 ft
Elevation105 ft
Report Wrong Elevation
Raw Report
METAR UGSB 200630Z 36005KT 320V030 9999 FEW033 23/17 Q1020 NOSIG=

Extra information for UGSB:More info

Metar Taf Metar & Taf Last 4 Metars F.Rules Stats Wind Profile Meteogram Temp Stats Airport Information Weather charts Add Link Nearby VenuesMetar ALERT Operation Metar Decoded Social comments